Weather History for Blackwell, OK

Change the Weather History Date:

Wednesday, January 9, 2013

  Actual Average (KPNC) Record (KPNC)
Temperature  
Mean Temperature 44 °F -  
Max Temperature 55 °F 42 °F 72 °F (2002)
Min Temperature 32 °F 19 °F -4 °F (1973)
Degree Days  
Heating Degree Days 22    
Moisture  
Dew Point 32 °F    
Average Humidity 69    
Maximum Humidity 100    
Minimum Humidity 36    
Precipitation  
Precipitation 0.03 in - - ()
Sea Level Pressure  
Sea Level Pressure 30.26 in    
Wind  
Wind Speed 9 mph (NE)    
Max Wind Speed 18 mph    
Max Gust Speed 25 mph    
Visibility 8 miles    
Events Rain    
Averages and records for this station are not official NWS values.
T = Trace of Precipitation, MM = Missing Value Source: NWS Daily Summary

Daily Weather History Graph

Daily Weather History Graph

Search for Another Location

Airport:

Trip Planner

Search our weather history database for the weather conditions in past years. The results will help you decide how hot, cold, wet, or windy it might be!

Date:

Astronomy

Jan. 09, 2013 Rise Set
Actual Time 7:42 AM CST 5:31 PM CST
Civil Twilight 7:13 AM CST 5:59 PM CST
Nautical Twilight 6:41 AM CST 6:31 PM CST
Astronomical Twilight 6:10 AM CST 7:03 PM CST
Moon 5:22 AM CST (1/9) 3:34 PM CST (1/9)
Length of Visible Light 10h 46m
Length of Day
9h 49m
Waning Crescent, 6% of the Moon is Illuminated
Jan 9
Waning Crescent
Jan 11
New
Jan 18
First Quarter
Jan 26
Full
Feb 3
Last Quarter

Hourly Weather History & Observations

Time (CST) Temp. Windchill Dew Point Humidity Pressure Visibility Wind Dir Wind Speed Gust Speed Precip Events Conditions
12:15 AM 32.0 °F 26.4 °F 30.2 °F 93% 30.19 in 1.5 mi NNE 5.8 mph - N/A   Scattered Clouds
12:35 AM 33.8 °F 29.6 °F 32.0 °F 93% 30.20 in 2.5 mi NNE 4.6 mph - N/A   Partly Cloudy
12:55 AM 32.0 °F 26.4 °F 32.0 °F 100% 30.20 in 2.5 mi NNE 5.8 mph - N/A   Mostly Cloudy
1:15 AM 33.8 °F 27.7 °F 33.8 °F 100% 30.21 in 4.0 mi North 6.9 mph - N/A   Partly Cloudy
1:35 AM 35.6 °F 30.7 °F 33.8 °F 93% 30.20 in 4.0 mi North 5.8 mph - N/A   Clear
1:55 AM 33.8 °F 29.6 °F 32.0 °F 93% 30.21 in 4.0 mi North 4.6 mph - N/A   Mostly Cloudy
2:15 AM 32.0 °F 23.6 °F 32.0 °F 100% 30.21 in 2.5 mi NNW 10.4 mph - N/A   Mostly Cloudy
2:35 AM 32.0 °F 24.2 °F 32.0 °F 100% 30.21 in 2.0 mi North 9.2 mph - N/A   Overcast
2:55 AM 33.8 °F 27.0 °F 33.8 °F 100% 30.22 in 4.0 mi NNE 8.1 mph - N/A   Scattered Clouds
3:15 AM 35.6 °F 30.7 °F 33.8 °F 93% 30.21 in 4.0 mi NE 5.8 mph - N/A   Clear
3:35 AM 33.8 °F 26.4 °F 33.8 °F 100% 30.21 in 4.0 mi North 9.2 mph - N/A   Clear
3:55 AM 33.8 °F 26.4 °F 32.0 °F 93% 30.22 in 4.0 mi North 9.2 mph - N/A   Clear
4:15 AM 33.8 °F - 32.0 °F 93% 30.22 in 4.0 mi Calm Calm - N/A   Clear
4:35 AM 32.0 °F 27.5 °F 32.0 °F 100% 30.23 in 4.0 mi NNE 4.6 mph - N/A   Partly Cloudy
4:55 AM 32.0 °F 26.4 °F 32.0 °F 100% 30.22 in 5.0 mi NNE 5.8 mph - N/A   Partly Cloudy
5:15 AM 32.0 °F 24.8 °F 32.0 °F 100% 30.23 in 5.0 mi North 8.1 mph - N/A   Partly Cloudy
5:35 AM 32.0 °F 24.2 °F 30.2 °F 93% 30.24 in 5.0 mi North 9.2 mph - N/A   Scattered Clouds
5:55 AM 32.0 °F 24.2 °F 30.2 °F 93% 30.25 in 5.0 mi North 9.2 mph - N/A   Scattered Clouds
6:15 AM 32.0 °F 23.6 °F 32.0 °F 100% 30.25 in 5.0 mi North 10.4 mph - N/A   Partly Cloudy
6:55 AM 32.0 °F 24.8 °F 32.0 °F 100% 30.28 in 9.0 mi North 8.1 mph - N/A   Clear
7:15 AM 32.0 °F 24.8 °F 30.2 °F 93% 30.30 in 10.0 mi North 8.1 mph - N/A   Clear
7:35 AM 32.0 °F 25.6 °F 28.4 °F 87% 30.32 in 10.0 mi North 6.9 mph - N/A   Clear
7:55 AM 32.0 °F 23.0 °F 28.4 °F 87% 30.32 in 10.0 mi North 11.5 mph - N/A   Clear
8:15 AM 32.0 °F 24.2 °F 28.4 °F 87% 30.32 in 10.0 mi North 9.2 mph - N/A   Clear
8:35 AM 32.0 °F 25.6 °F 28.4 °F 87% 30.33 in 10.0 mi North 6.9 mph - N/A   Clear
8:55 AM 32.0 °F 24.8 °F 28.4 °F 87% 30.34 in 10.0 mi NNE 8.1 mph - N/A   Clear
9:15 AM 33.8 °F 27.0 °F 28.4 °F 81% 30.35 in 10.0 mi NNE 8.1 mph - N/A   Clear
9:35 AM 35.6 °F 28.6 °F 30.2 °F 81% 30.36 in 10.0 mi NNE 9.2 mph - N/A   Clear
9:55 AM 37.4 °F 31.4 °F 30.2 °F 75% 30.36 in 10.0 mi NNE 8.1 mph - N/A   Clear
10:15 AM 37.4 °F 30.8 °F 30.2 °F 75% 30.36 in 10.0 mi NE 9.2 mph - N/A   Clear
10:35 AM 39.2 °F 33.6 °F 30.2 °F 70% 30.36 in 10.0 mi NNE 8.1 mph - N/A   Clear
10:55 AM 41.0 °F 35.8 °F 30.2 °F 65% 30.36 in 10.0 mi NNE 8.1 mph - N/A   Clear
11:15 AM 44.6 °F 40.2 °F 30.2 °F 57% 30.35 in 10.0 mi NNE 8.1 mph - N/A   Scattered Clouds
11:35 AM 46.4 °F 41.5 °F 30.2 °F 53% 30.35 in 10.0 mi NE 10.4 mph - N/A   Mostly Cloudy
12:15 PM 48.2 °F - 32.0 °F 54% 30.33 in 10.0 mi NE 12.7 mph - N/A   Mostly Cloudy
12:35 PM 50.0 °F - 32.0 °F 50% 30.31 in 10.0 mi NE 15.0 mph - N/A   Overcast
12:55 PM 53.6 °F - 32.0 °F 44% 30.31 in 10.0 mi NE 15.0 mph - N/A   Mostly Cloudy
1:15 PM 55.4 °F - 30.2 °F 38% 30.30 in 10.0 mi ENE 17.3 mph 20.7 mph N/A   Mostly Cloudy
1:35 PM 55.4 °F - 28.4 °F 36% 30.30 in 10.0 mi ENE 16.1 mph 23.0 mph N/A   Overcast
1:55 PM 55.4 °F - 28.4 °F 36% 30.28 in 10.0 mi ENE 15.0 mph - N/A   Overcast
2:15 PM 55.4 °F - 28.4 °F 36% 30.26 in 7.0 mi NE 18.4 mph 21.9 mph N/A   Mostly Cloudy
2:35 PM 55.4 °F - 28.4 °F 36% 30.27 in 10.0 mi NE 17.3 mph - N/A   Clear
2:55 PM 55.4 °F - 28.4 °F 36% 30.26 in 10.0 mi ENE 15.0 mph 23.0 mph N/A   Clear
3:15 PM 55.4 °F - 28.4 °F 36% 30.27 in 10.0 mi ENE 16.1 mph 25.3 mph N/A   Clear
3:35 PM 53.6 °F - 28.4 °F 38% 30.27 in 10.0 mi ENE 15.0 mph 21.9 mph N/A   Scattered Clouds
3:55 PM 53.6 °F - 28.4 °F 38% 30.27 in 10.0 mi ENE 16.1 mph - N/A   Scattered Clouds
4:15 PM 53.6 °F - 30.2 °F 41% 30.27 in 10.0 mi NE 13.8 mph - N/A   Scattered Clouds
4:35 PM 53.6 °F - 28.4 °F 38% 30.27 in 10.0 mi NE 12.7 mph - N/A   Partly Cloudy
4:55 PM 53.6 °F - 28.4 °F 38% 30.27 in 10.0 mi NE 10.4 mph - N/A   Mostly Cloudy
5:15 PM 53.6 °F - 28.4 °F 38% 30.26 in 10.0 mi NE 12.7 mph - N/A   Mostly Cloudy
5:35 PM 51.8 °F - 30.2 °F 44% 30.26 in 10.0 mi NE 13.8 mph - N/A   Mostly Cloudy
5:55 PM 51.8 °F - 30.2 °F 44% 30.26 in 10.0 mi NE 12.7 mph - N/A   Overcast
6:15 PM 50.0 °F - 30.2 °F 47% 30.25 in 10.0 mi NE 12.7 mph - N/A   Mostly Cloudy
6:35 PM 50.0 °F - 32.0 °F 50% 30.25 in 10.0 mi NE 11.5 mph - N/A   Mostly Cloudy
6:55 PM 50.0 °F - 32.0 °F 50% 30.24 in 10.0 mi NE 15.0 mph - N/A   Overcast
7:15 PM 50.0 °F - 32.0 °F 50% 30.24 in 10.0 mi NE 16.1 mph - N/A   Overcast
7:35 PM 50.0 °F - 32.0 °F 50% 30.23 in 10.0 mi NE 16.1 mph 23.0 mph N/A   Overcast
7:55 PM 50.0 °F - 32.0 °F 50% 30.24 in 10.0 mi NE 15.0 mph 20.7 mph N/A   Overcast
8:15 PM 50.0 °F - 32.0 °F 50% 30.23 in 10.0 mi ENE 15.0 mph 21.9 mph N/A   Overcast
8:35 PM 50.0 °F - 32.0 °F 50% 30.23 in 10.0 mi ENE 17.3 mph 23.0 mph N/A   Overcast
8:55 PM 50.0 °F - 32.0 °F 50% 30.22 in 10.0 mi ENE 16.1 mph 21.9 mph N/A   Overcast
9:15 PM 50.0 °F - 32.0 °F 50% 30.22 in 10.0 mi ENE 15.0 mph 24.2 mph N/A   Overcast
9:35 PM 48.2 °F - 35.6 °F 62% 30.21 in 10.0 mi ENE 16.1 mph 21.9 mph N/A   Overcast
9:55 PM 48.2 °F - 37.4 °F 66% 30.20 in 8.0 mi ENE 15.0 mph - N/A Rain Light Rain
10:15 PM 46.4 °F 40.1 °F 39.2 °F 76% 30.19 in 6.0 mi ENE 15.0 mph 20.7 mph 0.01 in Rain Light Rain
10:35 PM 46.4 °F 40.4 °F 39.2 °F 76% 30.19 in 10.0 mi ENE 13.8 mph - 0.01 in Rain Light Rain
10:55 PM 46.4 °F 40.7 °F 39.2 °F 76% 30.18 in 10.0 mi ENE 12.7 mph - 0.01 in Rain Light Rain
11:15 PM 46.4 °F 40.7 °F 39.2 °F 76% 30.18 in 10.0 mi ENE 12.7 mph - N/A Rain Light Rain
11:35 PM 46.4 °F 40.4 °F 39.2 °F 76% 30.17 in 5.0 mi ENE 13.8 mph 18.4 mph 0.01 in Rain Light Rain
11:55 PM 46.4 °F 40.4 °F 39.2 °F 76% 30.16 in 10.0 mi ENE 13.8 mph 17.3 mph 0.02 in Rain Light Rain